createdAt,value
2022-12-14T00:01:22.475Z,8.82
2022-12-14T00:03:50.022Z,7.75
2022-12-14T00:06:22.203Z,7.65
2022-12-14T00:08:50.820Z,7.13
2022-12-14T00:11:19.679Z,7.50
2022-12-14T00:13:48.882Z,7.50
2022-12-14T00:16:17.814Z,8.27
2022-12-14T00:18:48.507Z,8.38
2022-12-14T00:21:14.947Z,8.90
2022-12-14T00:23:44.089Z,7.93
2022-12-14T00:26:12.725Z,8.50
2022-12-14T00:28:39.323Z,7.80
2022-12-14T00:31:06.080Z,8.70
2022-12-14T00:33:33.684Z,8.50
2022-12-14T00:36:00.999Z,7.38
2022-12-14T00:38:28.016Z,6.97
2022-12-14T00:40:55.215Z,7.25
2022-12-14T00:43:22.319Z,7.00
2022-12-14T00:45:49.412Z,8.32
2022-12-14T00:48:18.855Z,8.32
2022-12-14T00:50:48.864Z,8.20
2022-12-14T00:53:16.293Z,6.78
2022-12-14T00:55:49.192Z,7.28
2022-12-14T00:58:19.170Z,6.70
2022-12-14T01:00:46.219Z,6.78
2022-12-14T01:03:13.440Z,7.35
2022-12-14T01:05:40.534Z,7.65
2022-12-14T01:08:07.648Z,7.40
2022-12-14T01:10:34.789Z,7.30
2022-12-14T01:13:01.418Z,8.00
2022-12-14T01:15:27.766Z,7.03
2022-12-14T01:17:54.212Z,8.32
2022-12-14T01:20:20.677Z,7.68
2022-12-14T01:22:47.316Z,7.05
2022-12-14T01:25:13.681Z,7.10
2022-12-14T01:27:40.310Z,7.20
2022-12-14T01:30:07.387Z,6.18
2022-12-14T01:32:34.719Z,7.22
2022-12-14T01:35:01.156Z,7.22
2022-12-14T01:37:28.654Z,6.82
2022-12-14T01:39:55.033Z,6.93
2022-12-14T01:42:22.627Z,6.78
2022-12-14T01:44:54.493Z,6.72
2022-12-14T01:47:33.504Z,6.80
2022-12-14T01:50:16.263Z,6.85
2022-12-14T01:52:46.748Z,6.45
2022-12-14T01:55:31.918Z,7.97
2022-12-14T01:58:09.979Z,7.25
2022-12-14T02:00:36.733Z,9.60
2022-12-14T02:03:14.201Z,6.68
2022-12-14T02:05:45.318Z,8.20
2022-12-14T02:08:13.294Z,7.47
2022-12-14T02:10:40.230Z,7.30
2022-12-14T02:13:14.656Z,6.57
2022-12-14T02:15:43.097Z,6.80
2022-12-14T02:18:16.805Z,6.10
2022-12-14T02:21:14.959Z,7.55
2022-12-14T02:24:02.832Z,6.13
2022-12-14T02:26:55.068Z,6.03
2022-12-14T02:29:34.726Z,7.05
2022-12-14T02:32:15.267Z,5.90
2022-12-14T02:34:44.379Z,6.88
2022-12-14T02:37:16.425Z,6.40
2022-12-14T02:39:58.338Z,6.55
2022-12-14T02:42:39.896Z,5.50
2022-12-14T02:45:37.326Z,5.72
2022-12-14T02:48:14.391Z,6.20
2022-12-14T02:50:58.474Z,6.68
2022-12-14T02:53:36.481Z,6.05
2022-12-14T02:56:08.854Z,5.70
2022-12-14T02:58:40.444Z,6.43
2022-12-14T03:01:13.958Z,6.50
2022-12-14T03:03:41.410Z,7.03
2022-12-14T03:06:14.598Z,7.00
2022-12-14T03:08:44.287Z,6.95
2022-12-14T03:11:16.290Z,6.28
2022-12-14T03:14:08.803Z,5.68
2022-12-14T03:16:44.350Z,6.47
2022-12-14T03:19:19.190Z,6.05
2022-12-14T03:21:51.896Z,5.82
2022-12-14T03:24:31.803Z,6.32
2022-12-14T03:27:05.411Z,7.25
2022-12-14T03:29:39.329Z,6.93
2022-12-14T03:32:10.190Z,6.30
2022-12-14T03:34:48.156Z,7.47
2022-12-14T03:37:19.643Z,6.95
2022-12-14T03:39:47.728Z,6.22
2022-12-14T03:42:28.473Z,7.38
2022-12-14T03:45:04.901Z,7.05
2022-12-14T03:48:08.230Z,6.80
2022-12-14T03:50:41.337Z,6.53
2022-12-14T03:53:33.431Z,6.28
2022-12-14T03:56:10.123Z,6.75
2022-12-14T03:58:44.920Z,5.88
2022-12-14T04:01:26.213Z,6.03
2022-12-14T04:03:56.523Z,6.70
2022-12-14T04:06:50.162Z,5.95
2022-12-14T04:09:34.895Z,5.60
2022-12-14T04:12:28.076Z,6.55
2022-12-14T04:15:19.800Z,7.63
2022-12-14T04:18:06.730Z,6.78
2022-12-14T04:20:41.032Z,7.15
2022-12-14T04:23:16.445Z,6.60
2022-12-14T04:26:04.712Z,6.47
2022-12-14T04:29:30.760Z,6.22
2022-12-14T04:32:10.232Z,7.45
2022-12-14T04:34:40.082Z,6.95
2022-12-14T04:37:11.996Z,6.68
2022-12-14T04:39:47.092Z,7.82
2022-12-14T04:42:16.354Z,7.00
2022-12-14T04:44:47.183Z,7.13
2022-12-14T04:47:17.548Z,7.03
2022-12-14T04:50:03.588Z,6.80
2022-12-14T04:52:40.452Z,6.38
2022-12-14T04:55:34.170Z,7.40
2022-12-14T04:58:19.297Z,6.60
2022-12-14T05:01:20.917Z,6.70
2022-12-14T05:04:12.552Z,7.00
2022-12-14T05:07:04.692Z,6.32
2022-12-14T05:09:57.463Z,6.95
2022-12-14T05:13:10.621Z,6.25
2022-12-14T05:15:47.541Z,6.80
2022-12-14T05:18:14.880Z,6.65
2022-12-14T05:20:41.364Z,6.78
2022-12-14T05:23:07.922Z,6.57
2022-12-14T05:25:34.548Z,6.70
2022-12-14T05:28:01.212Z,7.28
2022-12-14T05:30:27.630Z,6.78
2022-12-14T05:32:54.130Z,7.70
2022-12-14T05:35:20.784Z,7.47
2022-12-14T05:37:49.473Z,6.53
2022-12-14T05:40:16.534Z,7.70
2022-12-14T05:42:46.797Z,8.05
2022-12-14T05:45:15.396Z,5.63
2022-12-14T05:47:41.785Z,7.30
2022-12-14T05:50:08.933Z,8.25
2022-12-14T05:52:35.390Z,7.90
2022-12-14T05:55:04.509Z,8.98
2022-12-14T05:57:31.881Z,7.40
2022-12-14T05:59:58.283Z,7.25
2022-12-14T06:02:24.724Z,8.38
2022-12-14T06:04:51.290Z,8.80
2022-12-14T06:07:19.066Z,9.48
2022-12-14T06:09:48.174Z,8.27
2022-12-14T06:12:14.535Z,8.15
2022-12-14T06:14:40.893Z,8.48
2022-12-14T06:17:07.589Z,6.95
2022-12-14T06:19:33.972Z,8.40
2022-12-14T06:22:01.075Z,7.15
2022-12-14T06:24:27.444Z,7.28
2022-12-14T06:26:53.787Z,7.78
2022-12-14T06:29:20.633Z,7.95
2022-12-14T06:31:48.983Z,7.40
2022-12-14T06:34:16.295Z,7.90
2022-12-14T06:36:42.840Z,7.25
2022-12-14T06:39:14.912Z,8.32
2022-12-14T06:41:41.569Z,8.07
2022-12-14T06:44:11.867Z,7.65
2022-12-14T06:46:39.423Z,8.27
2022-12-14T06:49:06.521Z,7.28
2022-12-14T06:51:41.211Z,8.52
2022-12-14T06:54:10.395Z,7.80
2022-12-14T06:56:37.351Z,8.80
2022-12-14T06:59:05.256Z,7.38
2022-12-14T07:01:31.785Z,8.23
2022-12-14T07:03:59.526Z,9.13
2022-12-14T07:06:27.582Z,8.43
2022-12-14T07:08:58.430Z,8.85
2022-12-14T07:11:26.202Z,9.48
2022-12-14T07:13:53.517Z,8.65
2022-12-14T07:16:22.821Z,8.77
2022-12-14T07:18:49.800Z,8.65
2022-12-14T07:21:18.012Z,8.65
2022-12-14T07:23:45.884Z,8.80
2022-12-14T07:26:15.845Z,9.50
2022-12-14T07:28:43.274Z,9.88
2022-12-14T07:31:18.703Z,8.63
2022-12-14T07:33:45.520Z,9.32
2022-12-14T07:36:14.090Z,9.10
2022-12-14T07:38:41.037Z,8.95
2022-12-14T07:41:22.085Z,9.25
2022-12-14T07:43:49.831Z,8.57
2022-12-14T07:46:20.102Z,9.15
2022-12-14T07:48:49.356Z,8.88
2022-12-14T07:51:19.021Z,9.27
2022-12-14T07:53:45.708Z,10.98
2022-12-14T07:56:15.638Z,8.77
2022-12-14T07:58:42.623Z,10.07
2022-12-14T08:01:16.787Z,10.27
2022-12-14T08:03:54.541Z,8.93
2022-12-14T08:06:23.859Z,8.90
2022-12-14T08:08:50.427Z,12.02
2022-12-14T08:11:18.016Z,8.75
2022-12-14T08:13:44.662Z,9.68
2022-12-14T08:16:13.553Z,10.35
2022-12-14T08:18:40.468Z,9.15
2022-12-14T08:21:08.760Z,9.20
2022-12-14T08:23:36.042Z,10.20
2022-12-14T08:26:04.593Z,8.68
2022-12-14T08:28:32.684Z,8.98
2022-12-14T08:31:05.141Z,8.95
2022-12-14T08:33:33.989Z,10.07
2022-12-14T08:36:15.584Z,9.05
2022-12-14T08:38:42.368Z,9.80
2022-12-14T08:41:13.829Z,10.10
2022-12-14T08:43:41.121Z,10.48
2022-12-14T08:46:08.840Z,8.60
2022-12-14T08:48:35.601Z,11.25
2022-12-14T08:51:03.890Z,9.05
2022-12-14T08:53:30.966Z,9.52
2022-12-14T08:55:57.624Z,9.68
2022-12-14T08:58:24.236Z,9.35
2022-12-14T09:00:50.685Z,10.63
2022-12-14T09:03:17.184Z,10.45
2022-12-14T09:05:43.585Z,9.98
2022-12-14T09:08:10.078Z,9.45
2022-12-14T09:10:36.432Z,11.40
2022-12-14T09:13:03.099Z,10.80
2022-12-14T09:15:30.449Z,10.80
2022-12-14T09:17:56.819Z,8.77
2022-12-14T09:20:23.526Z,9.20
2022-12-14T09:22:51.408Z,9.57
2022-12-14T09:25:17.819Z,8.80
2022-12-14T09:27:44.516Z,10.10
2022-12-14T09:30:11.188Z,10.45
2022-12-14T09:32:37.631Z,11.98
2022-12-14T09:35:04.261Z,10.13
2022-12-14T09:37:30.970Z,10.90
2022-12-14T09:39:57.384Z,10.13
2022-12-14T09:42:53.793Z,9.80
2022-12-14T09:45:33.167Z,10.77
2022-12-14T09:48:26.854Z,11.15
2022-12-14T09:50:54.199Z,10.07
2022-12-14T09:53:22.104Z,9.98
2022-12-14T09:55:51.585Z,10.63
2022-12-14T09:58:21.970Z,10.80
2022-12-14T10:01:21.982Z,10.85
2022-12-14T10:04:14.606Z,10.90
2022-12-14T10:07:00.907Z,8.45
2022-12-14T10:09:43.442Z,11.75
2022-12-14T10:12:34.715Z,11.88
2022-12-14T10:15:10.522Z,10.23
2022-12-14T10:18:09.096Z,10.88
2022-12-14T10:21:06.350Z,9.77
2022-12-14T10:23:35.458Z,11.10
2022-12-14T10:26:08.877Z,10.30
2022-12-14T10:29:01.214Z,11.13
2022-12-14T10:31:44.555Z,6.82
2022-12-14T10:36:52.735Z,10.82
2022-12-14T10:39:22.241Z,11.90
2022-12-14T10:42:17.215Z,11.50
2022-12-14T10:45:39.631Z,10.65
2022-12-14T10:48:23.331Z,10.35
2022-12-14T10:50:59.972Z,10.07
2022-12-14T10:53:40.581Z,9.32
2022-12-14T10:56:14.212Z,9.48
2022-12-14T10:58:40.705Z,8.77
2022-12-14T11:01:13.349Z,8.82
2022-12-14T11:06:19.456Z,9.30
2022-12-14T11:08:48.268Z,9.55
2022-12-14T11:11:20.563Z,10.18
2022-12-14T11:13:56.432Z,9.80
2022-12-14T11:16:31.842Z,11.68
2022-12-14T11:19:04.072Z,9.90
2022-12-14T11:21:38.144Z,9.25
2022-12-14T11:24:05.640Z,11.63
2022-12-14T11:26:41.867Z,9.50
2022-12-14T11:29:22.124Z,10.10
2022-12-14T11:31:52.502Z,9.60
2022-12-14T11:34:25.305Z,9.32
2022-12-14T11:39:25.048Z,9.55
2022-12-14T11:41:57.420Z,10.23
2022-12-14T11:44:36.342Z,8.90
2022-12-14T11:47:06.547Z,10.02
2022-12-14T11:49:46.042Z,8.80
2022-12-14T11:52:22.336Z,9.68
2022-12-14T11:55:26.718Z,10.35
2022-12-14T11:57:57.021Z,9.70
2022-12-14T12:00:27.008Z,10.80
2022-12-14T12:03:08.445Z,9.85
2022-12-14T12:05:41.181Z,10.07
2022-12-14T12:08:20.412Z,9.50
2022-12-14T12:10:50.230Z,11.57
2022-12-14T12:13:23.828Z,9.30
2022-12-14T12:15:54.454Z,10.50
2022-12-14T12:18:46.182Z,11.13
2022-12-14T12:21:34.545Z,11.13
2022-12-14T12:24:27.001Z,10.63
2022-12-14T12:27:00.567Z,8.25
2022-12-14T12:29:32.834Z,10.50
2022-12-14T12:32:23.353Z,8.30
2022-12-14T12:35:11.389Z,10.90
2022-12-14T12:37:50.612Z,10.48
2022-12-14T12:40:22.867Z,10.95
2022-12-14T12:42:59.916Z,9.50
2022-12-14T12:45:41.226Z,12.27
2022-12-14T12:48:18.204Z,10.50
2022-12-14T12:50:51.128Z,9.63
2022-12-14T12:53:25.988Z,9.95
2022-12-14T12:55:57.200Z,9.82
2022-12-14T12:58:30.006Z,9.10
2022-12-14T13:01:04.348Z,9.40
2022-12-14T13:03:38.917Z,9.75
2022-12-14T13:06:30.825Z,11.38
2022-12-14T13:09:00.954Z,8.77
2022-12-14T13:11:31.563Z,8.75
2022-12-14T13:14:30.438Z,9.88
2022-12-14T13:16:59.485Z,9.50
2022-12-14T13:19:59.592Z,9.60
2022-12-14T13:22:29.970Z,8.90
2022-12-14T13:25:00.138Z,8.60
2022-12-14T13:28:01.496Z,9.35
2022-12-14T13:31:03.064Z,9.63
2022-12-14T13:33:50.874Z,9.35
2022-12-14T13:36:39.582Z,9.10
2022-12-14T13:39:31.156Z,9.05
2022-12-14T13:42:20.302Z,9.13
2022-12-14T13:45:01.663Z,8.15
2022-12-14T13:47:53.695Z,9.70
2022-12-14T13:50:36.200Z,8.77
2022-12-14T13:53:12.003Z,9.82
2022-12-14T13:55:52.959Z,10.02
2022-12-14T13:58:38.741Z,8.80
2022-12-14T14:01:13.801Z,8.40
2022-12-14T14:03:49.073Z,8.00
2022-12-14T14:06:32.980Z,10.93
2022-12-14T14:09:03.092Z,9.05
2022-12-14T14:11:38.418Z,9.05
2022-12-14T14:14:17.681Z,8.45
2022-12-14T14:16:49.653Z,9.82
2022-12-14T14:19:25.169Z,6.88
2022-12-14T14:22:26.203Z,9.45
2022-12-14T14:25:00.160Z,9.10
2022-12-14T14:27:34.294Z,8.85
2022-12-14T14:30:01.546Z,9.20
2022-12-14T14:32:37.682Z,7.90
2022-12-14T14:35:21.467Z,9.20
2022-12-14T14:37:56.949Z,9.27
2022-12-14T14:40:50.993Z,8.00
2022-12-14T14:43:30.000Z,9.57
2022-12-14T14:46:02.097Z,8.45
2022-12-14T14:48:40.641Z,10.85
2022-12-14T14:51:14.541Z,10.10
2022-12-14T14:53:41.378Z,9.25
2022-12-14T14:56:31.185Z,10.18
2022-12-14T14:59:37.376Z,10.57
2022-12-14T15:02:25.463Z,10.43
2022-12-14T15:04:57.195Z,9.07
2022-12-14T15:07:28.743Z,9.60
2022-12-14T15:10:24.054Z,10.40
2022-12-14T15:12:56.755Z,9.90
2022-12-14T15:15:34.521Z,9.85
2022-12-14T15:18:23.713Z,9.63
2022-12-14T15:21:07.439Z,8.90
2022-12-14T15:23:42.070Z,9.40
2022-12-14T15:26:17.118Z,9.23
2022-12-14T15:28:47.968Z,9.15
2022-12-14T15:31:14.841Z,8.75
2022-12-14T15:33:43.685Z,9.15
2022-12-14T15:36:19.533Z,10.23
2022-12-14T15:38:53.999Z,9.43
2022-12-14T15:41:23.750Z,7.95
2022-12-14T15:43:55.056Z,9.13
2022-12-14T15:46:33.384Z,10.30
2022-12-14T15:49:21.551Z,9.52
2022-12-14T15:51:49.124Z,9.20
2022-12-14T15:54:19.664Z,9.43
2022-12-14T15:56:55.708Z,10.48
2022-12-14T15:59:31.246Z,10.80
2022-12-14T16:02:15.224Z,8.90
2022-12-14T16:04:42.439Z,9.90
2022-12-14T16:07:18.571Z,9.52
2022-12-14T16:09:53.385Z,9.25
2022-12-14T16:12:44.379Z,9.95
2022-12-14T16:15:20.607Z,10.35
2022-12-14T16:17:47.182Z,10.00
2022-12-14T16:20:14.584Z,10.98
2022-12-14T16:22:41.848Z,9.82
2022-12-14T16:25:08.190Z,11.05
2022-12-14T16:27:39.349Z,10.27
2022-12-14T16:30:15.202Z,9.98
2022-12-14T16:32:41.990Z,9.52
2022-12-14T16:35:17.966Z,10.77
2022-12-14T16:37:45.043Z,10.13
2022-12-14T16:40:24.514Z,11.70
2022-12-14T16:42:50.928Z,12.10
2022-12-14T16:45:35.306Z,12.75
2022-12-14T16:48:15.815Z,11.88
2022-12-14T16:51:02.917Z,11.73
2022-12-14T16:53:32.079Z,12.65
2022-12-14T16:55:59.647Z,13.02
2022-12-14T16:58:26.374Z,13.98
2022-12-14T17:01:02.380Z,12.43
2022-12-14T17:03:30.584Z,12.75
2022-12-14T17:06:00.885Z,15.32
2022-12-14T17:08:27.806Z,12.75
2022-12-14T17:10:55.024Z,14.32
2022-12-14T17:13:21.416Z,14.88
2022-12-14T17:16:03.579Z,16.08
2022-12-14T17:18:32.951Z,13.38
2022-12-14T17:21:00.549Z,16.58
2022-12-14T17:23:28.225Z,18.10
2022-12-14T17:25:54.807Z,15.38
2022-12-14T17:28:28.030Z,18.80
2022-12-14T17:30:57.409Z,18.73
2022-12-14T17:33:29.612Z,16.50
2022-12-14T17:35:56.194Z,11.05
2022-12-14T17:38:23.598Z,14.15
2022-12-14T17:40:53.604Z,13.75
2022-12-14T17:43:23.907Z,14.10
2022-12-14T17:45:50.387Z,13.45
2022-12-14T17:48:17.515Z,12.93
2022-12-14T17:50:47.453Z,11.57
2022-12-14T17:53:16.261Z,11.25
2022-12-14T17:55:42.977Z,11.55
2022-12-14T17:58:10.856Z,12.68
2022-12-14T18:00:57.296Z,14.10
2022-12-14T18:03:23.909Z,13.98
2022-12-14T18:05:51.202Z,12.85
2022-12-14T18:08:19.367Z,13.38
2022-12-14T18:10:48.422Z,13.35
2022-12-14T18:13:15.365Z,13.95
2022-12-14T18:15:50.135Z,14.18
2022-12-14T18:18:22.172Z,14.48
2022-12-14T18:20:52.694Z,18.08
2022-12-14T18:23:21.320Z,17.00
2022-12-14T18:25:50.433Z,14.75
2022-12-14T18:28:17.377Z,17.67
2022-12-14T18:30:49.866Z,17.92
2022-12-14T18:33:26.091Z,18.60
2022-12-14T18:35:55.692Z,17.42
2022-12-14T18:38:22.594Z,17.67
2022-12-14T18:40:51.244Z,15.85
2022-12-14T18:43:26.129Z,13.82
2022-12-14T18:45:54.489Z,13.02
2022-12-14T18:48:22.406Z,13.40
2022-12-14T18:50:50.295Z,12.93
2022-12-14T18:53:18.756Z,15.02
2022-12-14T18:55:45.936Z,15.15
2022-12-14T18:58:18.173Z,16.38
2022-12-14T19:00:45.726Z,14.30
2022-12-14T19:03:14.882Z,15.10
2022-12-14T19:05:41.587Z,14.00
2022-12-14T19:08:09.975Z,15.85
2022-12-14T19:10:39.655Z,14.40
2022-12-14T19:13:06.394Z,16.90
2022-12-14T19:15:35.188Z,20.67
2022-12-14T19:18:01.876Z,20.85
2022-12-14T19:20:29.187Z,21.27
2022-12-14T19:22:55.780Z,21.95
2022-12-14T19:25:22.768Z,17.52
2022-12-14T19:30:38.485Z,17.73
2022-12-14T19:33:04.881Z,15.90
2022-12-14T19:35:31.755Z,14.93
2022-12-14T19:37:58.288Z,14.80
2022-12-14T19:40:24.740Z,16.27
2022-12-14T19:42:51.193Z,15.57
2022-12-14T19:45:17.684Z,15.20
2022-12-14T19:47:44.099Z,16.08
2022-12-14T19:50:14.286Z,16.48
2022-12-14T19:52:40.969Z,15.50
2022-12-14T19:55:07.755Z,13.90
2022-12-14T19:57:34.766Z,12.18
2022-12-14T20:00:01.277Z,13.57
2022-12-14T20:02:28.202Z,15.82
2022-12-14T20:04:54.719Z,14.98
2022-12-14T20:07:21.103Z,16.65
2022-12-14T20:09:47.530Z,16.70
2022-12-14T20:12:14.045Z,17.15
2022-12-14T20:14:40.526Z,18.95
2022-12-14T20:17:11.126Z,15.75
2022-12-14T20:19:38.903Z,15.40
2022-12-14T20:22:06.372Z,15.00
2022-12-14T20:24:32.993Z,15.70
2022-12-14T20:26:59.444Z,14.70
2022-12-14T20:29:27.199Z,13.63
2022-12-14T20:31:55.157Z,15.38
2022-12-14T20:34:22.321Z,14.10
2022-12-14T20:36:48.847Z,14.75
2022-12-14T20:39:15.221Z,15.38
2022-12-14T20:41:41.599Z,14.48
2022-12-14T20:44:11.763Z,14.75
2022-12-14T20:46:40.929Z,14.68
2022-12-14T20:49:11.490Z,13.85
2022-12-14T20:51:39.249Z,13.20
2022-12-14T20:54:08.005Z,10.63
2022-12-14T20:56:35.738Z,12.98
2022-12-14T20:59:02.597Z,11.02
2022-12-14T21:01:29.589Z,11.95
2022-12-14T21:04:00.133Z,12.35
2022-12-14T21:06:27.637Z,11.85
2022-12-14T21:09:09.219Z,10.40
2022-12-14T21:12:03.605Z,10.68
2022-12-14T21:14:38.411Z,11.57
2022-12-14T21:17:06.400Z,11.73
2022-12-14T21:19:33.743Z,11.60
2022-12-14T21:22:00.229Z,13.23
2022-12-14T21:27:17.818Z,12.48
2022-12-14T21:29:45.384Z,12.63
2022-12-14T21:32:12.194Z,12.75
2022-12-14T21:34:39.620Z,12.25
2022-12-14T21:37:07.192Z,13.48
2022-12-14T21:39:33.927Z,13.85
2022-12-14T21:42:10.700Z,11.15
2022-12-14T21:44:37.551Z,13.82
2022-12-14T21:47:06.220Z,14.63
2022-12-14T21:49:32.827Z,13.85
2022-12-14T21:51:59.212Z,15.48
2022-12-14T21:54:26.266Z,12.68
2022-12-14T21:57:11.856Z,14.70
2022-12-14T21:59:40.953Z,14.30
2022-12-14T22:02:21.364Z,14.18
2022-12-14T22:04:48.756Z,17.52
2022-12-14T22:07:20.693Z,17.58
2022-12-14T22:09:49.429Z,16.27
2022-12-14T22:12:19.004Z,15.93
2022-12-14T22:14:45.505Z,18.25
2022-12-14T22:17:14.609Z,14.50
2022-12-14T22:19:41.182Z,15.98
2022-12-14T22:22:07.781Z,12.80
2022-12-14T22:24:34.167Z,13.30
2022-12-14T22:27:00.783Z,15.25
2022-12-14T22:29:27.204Z,15.50
2022-12-14T22:31:53.845Z,14.00
2022-12-14T22:34:22.659Z,13.30
2022-12-14T22:36:50.915Z,14.00
2022-12-14T22:39:18.568Z,12.40
2022-12-14T22:41:45.702Z,12.60
2022-12-14T22:44:12.797Z,12.00
2022-12-14T22:46:40.675Z,11.38
2022-12-14T22:49:08.513Z,11.57
2022-12-14T22:51:35.337Z,12.82
2022-12-14T22:54:02.489Z,13.30
2022-12-14T22:56:39.160Z,12.50
2022-12-14T22:59:15.437Z,12.75
2022-12-14T23:01:42.482Z,14.23
2022-12-14T23:04:11.541Z,13.30
2022-12-14T23:06:38.015Z,12.82
2022-12-14T23:09:23.725Z,13.23
2022-12-14T23:12:11.449Z,13.35
2022-12-14T23:14:57.497Z,13.70
2022-12-14T23:17:43.229Z,13.57
2022-12-14T23:20:29.140Z,13.10
2022-12-14T23:23:14.068Z,13.95
2022-12-14T23:25:59.022Z,13.45
2022-12-14T23:28:44.445Z,13.05
2022-12-14T23:31:35.359Z,13.57
2022-12-14T23:34:20.369Z,13.02
2022-12-14T23:37:05.237Z,12.02
2022-12-14T23:39:50.579Z,13.25
2022-12-14T23:42:35.323Z,15.63
2022-12-14T23:45:20.051Z,17.77
2022-12-14T23:48:04.911Z,16.02
2022-12-14T23:50:49.673Z,15.27
2022-12-14T23:53:34.847Z,14.90
2022-12-14T23:56:20.246Z,14.32
2022-12-14T23:59:05.920Z,14.32
